sensor_id;sensor_type;location;lat;lon;timestamp;pressure;altitude;pressure_sealevel;temperature;humidity
64679;BME280;51094;53.864;27.676;2023-03-16T00:01:43;98921.66;;;3.27;75.74
64679;BME280;51094;53.864;27.676;2023-03-16T00:04:10;98939.31;;;3.34;75.73
64679;BME280;51094;53.864;27.676;2023-03-16T00:06:36;98858.59;;;2.84;75.82
64679;BME280;51094;53.864;27.676;2023-03-16T00:09:06;98934.44;;;3.28;75.60
64679;BME280;51094;53.864;27.676;2023-03-16T00:11:44;98884.50;;;2.98;75.50
64679;BME280;51094;53.864;27.676;2023-03-16T00:14:10;98910.50;;;3.09;75.91
64679;BME280;51094;53.864;27.676;2023-03-16T00:16:37;98912.78;;;3.15;75.97
64679;BME280;51094;53.864;27.676;2023-03-16T00:19:04;98946.88;;;3.38;76.15
64679;BME280;51094;53.864;27.676;2023-03-16T00:21:31;98925.97;;;3.26;76.44
64679;BME280;51094;53.864;27.676;2023-03-16T00:24:00;98926.31;;;3.19;75.68
64679;BME280;51094;53.864;27.676;2023-03-16T00:26:29;98957.22;;;3.36;76.24
64679;BME280;51094;53.864;27.676;2023-03-16T00:28:57;98961.41;;;3.39;76.35
64679;BME280;51094;53.864;27.676;2023-03-16T00:31:24;98941.19;;;3.31;76.16
64679;BME280;51094;53.864;27.676;2023-03-16T00:33:50;98958.06;;;3.37;75.97
64679;BME280;51094;53.864;27.676;2023-03-16T00:36:19;98717.69;;;1.84;74.76
64679;BME280;51094;53.864;27.676;2023-03-16T00:38:48;98916.13;;;3.17;75.82
64679;BME280;51094;53.864;27.676;2023-03-16T00:41:15;98945.13;;;3.38;75.81
64679;BME280;51094;53.864;27.676;2023-03-16T00:43:44;98864.28;;;2.90;75.28
64679;BME280;51094;53.864;27.676;2023-03-16T00:46:16;98779.78;;;2.29;75.33
64679;BME280;51094;53.864;27.676;2023-03-16T00:48:44;98944.16;;;3.41;75.23
64679;BME280;51094;53.864;27.676;2023-03-16T00:51:15;98945.50;;;3.30;75.22
64679;BME280;51094;53.864;27.676;2023-03-16T00:53:44;98943.75;;;3.31;75.19
64679;BME280;51094;53.864;27.676;2023-03-16T00:56:12;98898.38;;;2.94;75.03
64679;BME280;51094;53.864;27.676;2023-03-16T00:58:40;98949.72;;;3.31;75.65
64679;BME280;51094;53.864;27.676;2023-03-16T01:01:13;98931.38;;;3.20;75.33
64679;BME280;51094;53.864;27.676;2023-03-16T01:03:40;98941.59;;;3.22;75.14
64679;BME280;51094;53.864;27.676;2023-03-16T01:06:10;98954.03;;;3.31;75.03
64679;BME280;51094;53.864;27.676;2023-03-16T01:08:38;98956.66;;;3.29;75.04
64679;BME280;51094;53.864;27.676;2023-03-16T01:11:12;98985.22;;;3.23;75.22
64679;BME280;51094;53.864;27.676;2023-03-16T01:13:43;98932.50;;;3.15;75.14
64679;BME280;51094;53.864;27.676;2023-03-16T01:16:12;98955.84;;;3.29;74.88
64679;BME280;51094;53.864;27.676;2023-03-16T01:18:40;98953.19;;;3.30;75.13
64679;BME280;51094;53.864;27.676;2023-03-16T01:21:08;98959.25;;;3.29;75.02
64679;BME280;51094;53.864;27.676;2023-03-16T01:23:35;98963.97;;;3.39;75.43
64679;BME280;51094;53.864;27.676;2023-03-16T01:26:02;98928.81;;;3.20;74.71
64679;BME280;51094;53.864;27.676;2023-03-16T01:28:30;98971.69;;;3.39;74.75
64679;BME280;51094;53.864;27.676;2023-03-16T01:31:10;98903.09;;;3.03;74.59
64679;BME280;51094;53.864;27.676;2023-03-16T01:33:37;98963.34;;;3.33;74.54
64679;BME280;51094;53.864;27.676;2023-03-16T01:36:13;98981.53;;;3.29;74.03
64679;BME280;51094;53.864;27.676;2023-03-16T01:38:48;98930.84;;;2.95;74.65
64679;BME280;51094;53.864;27.676;2023-03-16T01:41:15;98931.75;;;2.94;74.45
64679;BME280;51094;53.864;27.676;2023-03-16T01:43:42;98993.41;;;3.31;73.83
64679;BME280;51094;53.864;27.676;2023-03-16T01:46:16;98980.47;;;3.14;74.35
64679;BME280;51094;53.864;27.676;2023-03-16T01:54:10;99018.06;;;2.98;74.10
64679;BME280;51094;53.864;27.676;2023-03-16T01:59:30;98964.97;;;2.78;74.32
64679;BME280;51094;53.864;27.676;2023-03-16T02:01:59;98982.50;;;2.89;75.21
64679;BME280;51094;53.864;27.676;2023-03-16T02:04:49;98988.00;;;3.00;74.66
64679;BME280;51094;53.864;27.676;2023-03-16T02:07:21;98938.59;;;2.75;74.61
64679;BME280;51094;53.864;27.676;2023-03-16T02:09:53;98945.41;;;2.76;74.48
64679;BME280;51094;53.864;27.676;2023-03-16T02:12:23;98906.19;;;2.53;74.88
64679;BME280;51094;53.864;27.676;2023-03-16T02:14:53;98816.91;;;2.02;74.76
64679;BME280;51094;53.864;27.676;2023-03-16T02:17:23;98848.66;;;2.18;74.19
64679;BME280;51094;53.864;27.676;2023-03-16T02:22:48;98886.81;;;2.26;74.36
64679;BME280;51094;53.864;27.676;2023-03-16T02:25:17;99028.97;;;2.83;74.68
64679;BME280;51094;53.864;27.676;2023-03-16T02:30:31;98971.88;;;2.57;75.15
64679;BME280;51094;53.864;27.676;2023-03-16T02:33:00;99000.09;;;2.78;75.14
64679;BME280;51094;53.864;27.676;2023-03-16T02:35:27;98996.28;;;2.86;75.56
64679;BME280;51094;53.864;27.676;2023-03-16T02:37:55;98851.91;;;1.62;75.22
64679;BME280;51094;53.864;27.676;2023-03-16T02:40:32;98926.00;;;2.50;74.57
64679;BME280;51094;53.864;27.676;2023-03-16T02:43:16;99018.56;;;2.86;74.71
64679;BME280;51094;53.864;27.676;2023-03-16T02:45:56;98960.56;;;2.61;74.99
64679;BME280;51094;53.864;27.676;2023-03-16T02:48:47;98972.03;;;2.54;75.34
64679;BME280;51094;53.864;27.676;2023-03-16T02:51:15;98982.69;;;2.64;75.23
64679;BME280;51094;53.864;27.676;2023-03-16T02:53:42;98922.88;;;2.23;75.28
64679;BME280;51094;53.864;27.676;2023-03-16T02:56:08;98990.28;;;2.67;75.42
64679;BME280;51094;53.864;27.676;2023-03-16T02:58:36;98996.25;;;2.67;75.66
64679;BME280;51094;53.864;27.676;2023-03-16T03:01:08;98997.28;;;2.63;75.64
64679;BME280;51094;53.864;27.676;2023-03-16T03:03:34;98934.38;;;2.14;75.03
64679;BME280;51094;53.864;27.676;2023-03-16T03:06:02;99027.69;;;2.73;75.22
64679;BME280;51094;53.864;27.676;2023-03-16T03:08:34;98933.53;;;2.14;75.47
64679;BME280;51094;53.864;27.676;2023-03-16T03:11:00;99027.56;;;2.76;75.40
64679;BME280;51094;53.864;27.676;2023-03-16T03:13:27;98943.28;;;2.26;75.42
64679;BME280;51094;53.864;27.676;2023-03-16T03:15:54;99039.56;;;2.75;74.76
64679;BME280;51094;53.864;27.676;2023-03-16T03:18:23;99036.88;;;2.78;74.83
64679;BME280;51094;53.864;27.676;2023-03-16T03:20:51;99041.31;;;2.75;74.89
64679;BME280;51094;53.864;27.676;2023-03-16T03:23:18;99008.97;;;2.50;74.79
64679;BME280;51094;53.864;27.676;2023-03-16T03:25:45;99055.03;;;2.74;74.77
64679;BME280;51094;53.864;27.676;2023-03-16T03:28:14;98955.38;;;2.22;74.33
64679;BME280;51094;53.864;27.676;2023-03-16T03:30:42;99042.84;;;2.79;74.40
64679;BME280;51094;53.864;27.676;2023-03-16T03:33:08;98969.06;;;2.23;73.79
64679;BME280;51094;53.864;27.676;2023-03-16T03:35:35;99027.06;;;2.47;74.03
64679;BME280;51094;53.864;27.676;2023-03-16T03:38:02;99062.63;;;2.56;73.63
64679;BME280;51094;53.864;27.676;2023-03-16T03:40:29;99064.47;;;2.53;73.77
64679;BME280;51094;53.864;27.676;2023-03-16T03:43:00;99016.84;;;2.25;74.01
64679;BME280;51094;53.864;27.676;2023-03-16T03:45:28;99066.88;;;2.57;73.79
64679;BME280;51094;53.864;27.676;2023-03-16T03:47:55;99037.41;;;2.46;73.85
64679;BME280;51094;53.864;27.676;2023-03-16T03:50:22;99074.41;;;2.60;73.53
64679;BME280;51094;53.864;27.676;2023-03-16T03:52:57;99073.00;;;2.53;73.50
64679;BME280;51094;53.864;27.676;2023-03-16T03:55:26;98969.41;;;1.73;73.45
64679;BME280;51094;53.864;27.676;2023-03-16T03:57:53;99077.44;;;2.50;73.91
64679;BME280;51094;53.864;27.676;2023-03-16T04:00:20;99083.59;;;2.46;73.15
64679;BME280;51094;53.864;27.676;2023-03-16T04:02:47;98922.13;;;1.37;72.86
64679;BME280;51094;53.864;27.676;2023-03-16T04:05:23;99088.78;;;2.44;72.96
64679;BME280;51094;53.864;27.676;2023-03-16T04:07:53;99068.69;;;2.33;73.41
64679;BME280;51094;53.864;27.676;2023-03-16T04:10:27;99017.78;;;2.03;73.20
64679;BME280;51094;53.864;27.676;2023-03-16T04:12:56;99087.88;;;2.45;73.32
64679;BME280;51094;53.864;27.676;2023-03-16T04:15:23;99008.72;;;1.94;72.77
64679;BME280;51094;53.864;27.676;2023-03-16T04:18:13;99090.69;;;2.39;73.15
64679;BME280;51094;53.864;27.676;2023-03-16T04:20:41;99093.16;;;2.42;72.71
64679;BME280;51094;53.864;27.676;2023-03-16T04:23:10;99069.69;;;2.29;72.47
64679;BME280;51094;53.864;27.676;2023-03-16T04:25:38;99088.78;;;2.44;72.46
64679;BME280;51094;53.864;27.676;2023-03-16T04:28:07;99070.72;;;2.25;72.43
64679;BME280;51094;53.864;27.676;2023-03-16T04:30:36;98995.19;;;1.69;72.14
64679;BME280;51094;53.864;27.676;2023-03-16T04:33:15;99021.66;;;1.91;72.53
64679;BME280;51094;53.864;27.676;2023-03-16T04:35:43;99087.84;;;2.25;72.00
64679;BME280;51094;53.864;27.676;2023-03-16T04:38:13;99069.72;;;2.08;72.15
64679;BME280;51094;53.864;27.676;2023-03-16T04:40:50;99057.25;;;1.98;72.43
64679;BME280;51094;53.864;27.676;2023-03-16T04:43:20;99008.97;;;1.66;72.32
64679;BME280;51094;53.864;27.676;2023-03-16T04:45:51;99104.69;;;2.10;71.96
64679;BME280;51094;53.864;27.676;2023-03-16T04:48:19;99101.28;;;2.10;72.63
64679;BME280;51094;53.864;27.676;2023-03-16T04:50:47;99103.06;;;2.08;72.48
64679;BME280;51094;53.864;27.676;2023-03-16T04:53:15;99068.88;;;1.85;72.27
64679;BME280;51094;53.864;27.676;2023-03-16T04:55:44;99117.75;;;2.04;72.31
64679;BME280;51094;53.864;27.676;2023-03-16T04:58:12;99101.34;;;2.08;72.24
64679;BME280;51094;53.864;27.676;2023-03-16T05:00:41;99084.63;;;1.98;72.69
64679;BME280;51094;53.864;27.676;2023-03-16T05:03:20;99100.91;;;2.19;72.71
64679;BME280;51094;53.864;27.676;2023-03-16T05:05:47;99038.84;;;1.67;71.96
64679;BME280;51094;53.864;27.676;2023-03-16T05:08:15;99095.59;;;2.02;72.66
64679;BME280;51094;53.864;27.676;2023-03-16T05:10:46;99085.66;;;1.94;72.08
64679;BME280;51094;53.864;27.676;2023-03-16T05:13:14;99134.19;;;2.20;72.28
64679;BME280;51094;53.864;27.676;2023-03-16T05:15:43;99046.94;;;1.56;71.92
64679;BME280;51094;53.864;27.676;2023-03-16T05:18:16;99140.44;;;2.15;71.92
64679;BME280;51094;53.864;27.676;2023-03-16T05:20:43;99131.47;;;2.03;72.51
64679;BME280;51094;53.864;27.676;2023-03-16T05:23:10;99143.81;;;2.15;72.55
64679;BME280;51094;53.864;27.676;2023-03-16T05:25:48;99093.56;;;1.88;72.11
64679;BME280;51094;53.864;27.676;2023-03-16T05:28:18;99145.47;;;2.38;72.47
64679;BME280;51094;53.864;27.676;2023-03-16T05:30:58;99030.91;;;1.73;71.85
64679;BME280;51094;53.864;27.676;2023-03-16T05:33:29;99159.56;;;2.50;71.76
64679;BME280;51094;53.864;27.676;2023-03-16T05:36:06;99156.06;;;2.52;71.74
64679;BME280;51094;53.864;27.676;2023-03-16T05:38:34;99167.81;;;2.58;71.50
64679;BME280;51094;53.864;27.676;2023-03-16T05:41:03;99162.69;;;2.58;70.86
64679;BME280;51094;53.864;27.676;2023-03-16T05:44:04;99170.94;;;2.64;71.03
64679;BME280;51094;53.864;27.676;2023-03-16T05:46:49;99173.38;;;2.67;70.94
64679;BME280;51094;53.864;27.676;2023-03-16T05:49:17;99165.19;;;2.59;70.67
64679;BME280;51094;53.864;27.676;2023-03-16T05:52:34;99177.81;;;2.64;70.45
64679;BME280;51094;53.864;27.676;2023-03-16T05:55:08;99181.28;;;2.63;70.43
64679;BME280;51094;53.864;27.676;2023-03-16T05:57:35;99157.00;;;2.50;70.52
64679;BME280;51094;53.864;27.676;2023-03-16T06:00:05;99184.06;;;2.79;70.79
64679;BME280;51094;53.864;27.676;2023-03-16T06:02:54;99189.81;;;2.85;70.23
64679;BME280;51094;53.864;27.676;2023-03-16T06:05:26;99126.50;;;2.42;69.83
64679;BME280;51094;53.864;27.676;2023-03-16T06:07:54;99194.63;;;2.93;70.22
64679;BME280;51094;53.864;27.676;2023-03-16T06:10:22;99200.25;;;2.81;69.45
64679;BME280;51094;53.864;27.676;2023-03-16T06:12:50;99148.78;;;2.62;69.70
64679;BME280;51094;53.864;27.676;2023-03-16T06:15:18;99177.63;;;2.90;69.74
64679;BME280;51094;53.864;27.676;2023-03-16T06:17:46;99196.56;;;3.08;69.21
64679;BME280;51094;53.864;27.676;2023-03-16T06:20:14;99187.69;;;2.95;69.01
64679;BME280;51094;53.864;27.676;2023-03-16T06:22:43;99208.50;;;3.09;68.69
64679;BME280;51094;53.864;27.676;2023-03-16T06:25:11;99172.56;;;2.67;68.03
64679;BME280;51094;53.864;27.676;2023-03-16T06:27:40;99215.31;;;2.90;68.20
64679;BME280;51094;53.864;27.676;2023-03-16T06:30:12;99185.97;;;2.74;68.53
64679;BME280;51094;53.864;27.676;2023-03-16T06:32:39;99213.75;;;2.86;68.72
64679;BME280;51094;53.864;27.676;2023-03-16T06:35:11;99241.03;;;2.88;68.56
64679;BME280;51094;53.864;27.676;2023-03-16T06:37:43;99168.38;;;2.64;69.20
64679;BME280;51094;53.864;27.676;2023-03-16T06:40:30;99059.06;;;2.17;69.09
64679;BME280;51094;53.864;27.676;2023-03-16T06:42:57;99227.03;;;3.38;68.63
64679;BME280;51094;53.864;27.676;2023-03-16T06:45:24;99157.59;;;2.98;68.32
64679;BME280;51094;53.864;27.676;2023-03-16T06:47:54;99230.53;;;3.55;68.11
64679;BME280;51094;53.864;27.676;2023-03-16T06:50:21;99230.59;;;3.54;67.44
64679;BME280;51094;53.864;27.676;2023-03-16T06:52:48;99193.38;;;3.44;67.77
64679;BME280;51094;53.864;27.676;2023-03-16T06:55:15;99225.84;;;3.65;66.65
64679;BME280;51094;53.864;27.676;2023-03-16T06:57:45;99055.75;;;2.77;67.00
64679;BME280;51094;53.864;27.676;2023-03-16T07:00:13;99181.09;;;3.69;66.80
64679;BME280;51094;53.864;27.676;2023-03-16T07:02:41;99208.03;;;3.99;67.13
64679;BME280;51094;53.864;27.676;2023-03-16T07:05:10;99154.34;;;3.92;66.51
64679;BME280;51094;53.864;27.676;2023-03-16T07:07:41;99236.63;;;4.50;65.33
64679;BME280;51094;53.864;27.676;2023-03-16T07:10:14;99152.19;;;4.01;65.44
64679;BME280;51094;53.864;27.676;2023-03-16T07:12:41;99196.66;;;4.41;65.27
64679;BME280;51094;53.864;27.676;2023-03-16T07:15:09;99092.56;;;3.75;64.78
64679;BME280;51094;53.864;27.676;2023-03-16T07:17:37;99245.81;;;4.55;64.81
64679;BME280;51094;53.864;27.676;2023-03-16T07:20:06;99235.28;;;4.41;65.04
64679;BME280;51094;53.864;27.676;2023-03-16T07:22:37;99250.75;;;4.77;65.10
64679;BME280;51094;53.864;27.676;2023-03-16T07:25:07;99227.00;;;4.72;63.71
64679;BME280;51094;53.864;27.676;2023-03-16T07:27:34;99236.63;;;4.86;64.01
64679;BME280;51094;53.864;27.676;2023-03-16T07:30:04;99253.09;;;5.00;63.51
64679;BME280;51094;53.864;27.676;2023-03-16T07:32:34;99245.19;;;4.86;62.56
64679;BME280;51094;53.864;27.676;2023-03-16T07:35:01;99278.50;;;5.08;63.91
64679;BME280;51094;53.864;27.676;2023-03-16T07:37:30;99154.50;;;4.44;63.60
64679;BME280;51094;53.864;27.676;2023-03-16T07:40:02;99250.31;;;5.05;62.24
64679;BME280;51094;53.864;27.676;2023-03-16T07:42:30;99277.19;;;4.99;61.23
64679;BME280;51094;53.864;27.676;2023-03-16T07:45:04;99258.59;;;4.76;62.49
64679;BME280;51094;53.864;27.676;2023-03-16T07:47:32;99283.41;;;4.95;62.54
64679;BME280;51094;53.864;27.676;2023-03-16T07:50:06;99281.31;;;5.04;62.45
64679;BME280;51094;53.864;27.676;2023-03-16T07:52:37;99285.34;;;5.09;62.80
64679;BME280;51094;53.864;27.676;2023-03-16T07:55:05;99283.53;;;5.28;62.27
64679;BME280;51094;53.864;27.676;2023-03-16T07:57:32;99293.72;;;5.49;61.79
64679;BME280;51094;53.864;27.676;2023-03-16T07:59:59;99276.63;;;5.46;61.45
64679;BME280;51094;53.864;27.676;2023-03-16T08:02:38;99256.38;;;5.39;62.29
64679;BME280;51094;53.864;27.676;2023-03-16T08:05:07;99233.31;;;5.35;61.81
64679;BME280;51094;53.864;27.676;2023-03-16T08:07:39;99268.44;;;5.38;60.74
64679;BME280;51094;53.864;27.676;2023-03-16T08:10:11;99286.94;;;5.46;61.15
64679;BME280;51094;53.864;27.676;2023-03-16T08:12:53;99287.19;;;5.42;60.12
64679;BME280;51094;53.864;27.676;2023-03-16T08:15:20;99288.22;;;5.38;61.65
64679;BME280;51094;53.864;27.676;2023-03-16T08:17:49;99295.97;;;5.38;61.18
64679;BME280;51094;53.864;27.676;2023-03-16T08:20:21;99290.56;;;5.25;61.05
64679;BME280;51094;53.864;27.676;2023-03-16T08:22:48;99259.53;;;4.92;61.03
64679;BME280;51094;53.864;27.676;2023-03-16T08:25:20;99279.88;;;5.32;61.51
64679;BME280;51094;53.864;27.676;2023-03-16T08:27:55;99267.00;;;5.50;61.26
64679;BME280;51094;53.864;27.676;2023-03-16T08:30:24;99291.72;;;5.71;61.52
64679;BME280;51094;53.864;27.676;2023-03-16T08:33:09;99301.91;;;5.91;60.86
64679;BME280;51094;53.864;27.676;2023-03-16T08:35:36;99274.69;;;5.84;58.47
64679;BME280;51094;53.864;27.676;2023-03-16T08:38:02;99300.34;;;5.87;57.85
64679;BME280;51094;53.864;27.676;2023-03-16T08:40:29;99300.84;;;5.61;59.00
64679;BME280;51094;53.864;27.676;2023-03-16T08:42:57;99220.19;;;4.88;59.56
64679;BME280;51094;53.864;27.676;2023-03-16T08:45:24;99293.84;;;5.46;59.71
64679;BME280;51094;53.864;27.676;2023-03-16T08:47:52;99183.09;;;4.56;58.24
64679;BME280;51094;53.864;27.676;2023-03-16T08:50:19;99291.41;;;5.25;59.63
64679;BME280;51094;53.864;27.676;2023-03-16T08:52:46;99197.59;;;4.76;59.34
64679;BME280;51094;53.864;27.676;2023-03-16T08:55:14;99250.22;;;5.24;60.38
64679;BME280;51094;53.864;27.676;2023-03-16T08:57:41;99319.66;;;5.63;59.00
64679;BME280;51094;53.864;27.676;2023-03-16T09:00:11;99216.03;;;5.03;59.30
64679;BME280;51094;53.864;27.676;2023-03-16T09:02:40;99297.72;;;5.54;58.81
64679;BME280;51094;53.864;27.676;2023-03-16T09:05:09;99299.53;;;5.69;59.72
64679;BME280;51094;53.864;27.676;2023-03-16T09:07:37;99231.81;;;5.31;58.71
64679;BME280;51094;53.864;27.676;2023-03-16T09:10:08;99324.81;;;5.97;57.99
64679;BME280;51094;53.864;27.676;2023-03-16T09:12:39;99257.75;;;5.63;58.31
64679;BME280;51094;53.864;27.676;2023-03-16T09:15:08;99283.44;;;5.82;58.42
64679;BME280;51094;53.864;27.676;2023-03-16T09:17:35;99305.00;;;5.81;56.73
64679;BME280;51094;53.864;27.676;2023-03-16T09:20:04;99292.91;;;5.81;57.90
64679;BME280;51094;53.864;27.676;2023-03-16T09:22:48;99335.25;;;6.12;57.93
64679;BME280;51094;53.864;27.676;2023-03-16T09:25:14;99335.84;;;6.17;58.43
64679;BME280;51094;53.864;27.676;2023-03-16T09:27:41;99301.59;;;6.30;57.50
64679;BME280;51094;53.864;27.676;2023-03-16T09:30:09;99335.97;;;6.80;58.46
64679;BME280;51094;53.864;27.676;2023-03-16T09:32:36;99337.88;;;7.08;58.27
64679;BME280;51094;53.864;27.676;2023-03-16T09:35:04;99331.78;;;7.24;56.00
64679;BME280;51094;53.864;27.676;2023-03-16T09:37:32;99336.28;;;7.21;56.09
64679;BME280;51094;53.864;27.676;2023-03-16T09:40:20;99336.47;;;7.18;55.53
64679;BME280;51094;53.864;27.676;2023-03-16T09:42:58;99339.63;;;7.23;55.47
64679;BME280;51094;53.864;27.676;2023-03-16T09:45:52;99335.53;;;7.19;54.39
64679;BME280;51094;53.864;27.676;2023-03-16T09:48:23;99313.59;;;7.10;55.15
64679;BME280;51094;53.864;27.676;2023-03-16T09:50:52;99356.94;;;7.37;52.79
64679;BME280;51094;53.864;27.676;2023-03-16T09:53:30;99347.09;;;7.43;54.42
64679;BME280;51094;53.864;27.676;2023-03-16T09:56:00;99327.94;;;7.31;53.68
64679;BME280;51094;53.864;27.676;2023-03-16T09:58:29;99277.16;;;6.99;54.85
64679;BME280;51094;53.864;27.676;2023-03-16T10:01:03;99356.75;;;7.55;55.41
64679;BME280;51094;53.864;27.676;2023-03-16T10:06:17;99369.75;;;7.70;54.17
64679;BME280;51094;53.864;27.676;2023-03-16T10:14:48;99375.56;;;8.03;52.90
64679;BME280;51094;53.864;27.676;2023-03-16T10:17:22;99374.84;;;8.29;53.48
64679;BME280;51094;53.864;27.676;2023-03-16T10:19:56;99263.19;;;7.77;53.37
64679;BME280;51094;53.864;27.676;2023-03-16T10:22:29;99315.94;;;8.47;51.08
64679;BME280;51094;53.864;27.676;2023-03-16T10:27:34;99369.50;;;9.30;50.44
64679;BME280;51094;53.864;27.676;2023-03-16T10:30:06;99309.81;;;9.04;49.89
64679;BME280;51094;53.864;27.676;2023-03-16T10:32:33;99297.94;;;9.66;49.75
64679;BME280;51094;53.864;27.676;2023-03-16T10:35:10;99385.94;;;10.23;49.48
64679;BME280;51094;53.864;27.676;2023-03-16T10:37:39;99371.94;;;9.98;46.65
64679;BME280;51094;53.864;27.676;2023-03-16T10:40:10;99330.13;;;9.51;47.00
64679;BME280;51094;53.864;27.676;2023-03-16T10:42:38;99241.31;;;8.93;46.97
64679;BME280;51094;53.864;27.676;2023-03-16T10:45:05;99386.69;;;9.85;48.61
64679;BME280;51094;53.864;27.676;2023-03-16T10:47:32;99397.72;;;10.01;47.91
64679;BME280;51094;53.864;27.676;2023-03-16T10:50:10;99402.13;;;10.14;47.48
64679;BME280;51094;53.864;27.676;2023-03-16T10:52:42;99384.50;;;10.31;47.64
64679;BME280;51094;53.864;27.676;2023-03-16T10:57:51;99370.25;;;10.37;46.39
64679;BME280;51094;53.864;27.676;2023-03-16T11:00:33;99251.50;;;9.61;45.55
64679;BME280;51094;53.864;27.676;2023-03-16T11:03:23;99367.03;;;10.21;45.75
64679;BME280;51094;53.864;27.676;2023-03-16T11:06:05;99387.16;;;10.17;46.65
64679;BME280;51094;53.864;27.676;2023-03-16T11:08:35;99382.13;;;10.01;45.79
64679;BME280;51094;53.864;27.676;2023-03-16T11:11:13;99261.28;;;9.18;47.02
64679;BME280;51094;53.864;27.676;2023-03-16T11:13:46;99394.41;;;9.99;47.05
64679;BME280;51094;53.864;27.676;2023-03-16T11:22:03;99423.22;;;9.70;45.88
64679;BME280;51094;53.864;27.676;2023-03-16T11:27:10;99398.34;;;9.53;45.48
64679;BME280;51094;53.864;27.676;2023-03-16T11:30:09;99420.56;;;9.84;46.20
64679;BME280;51094;53.864;27.676;2023-03-16T11:32:42;99417.28;;;9.94;44.68
64679;BME280;51094;53.864;27.676;2023-03-16T11:35:14;99413.84;;;9.67;45.29
64679;BME280;51094;53.864;27.676;2023-03-16T11:48:56;99417.56;;;8.95;45.63
64679;BME280;51094;53.864;27.676;2023-03-16T11:51:45;99442.34;;;9.27;45.15
64679;BME280;51094;53.864;27.676;2023-03-16T11:56:54;99431.78;;;9.97;44.38
64679;BME280;51094;53.864;27.676;2023-03-16T11:59:41;99426.28;;;10.41;42.91
64679;BME280;51094;53.864;27.676;2023-03-16T12:02:52;99431.81;;;10.75;42.05
64679;BME280;51094;53.864;27.676;2023-03-16T12:08:09;99431.56;;;12.11;37.72
64679;BME280;51094;53.864;27.676;2023-03-16T12:11:21;99332.72;;;11.73;39.31
64679;BME280;51094;53.864;27.676;2023-03-16T12:16:28;99427.50;;;13.43;37.93
64679;BME280;51094;53.864;27.676;2023-03-16T12:19:32;99367.16;;;14.19;36.84
64679;BME280;51094;53.864;27.676;2023-03-16T12:22:11;99332.47;;;13.23;34.35
64679;BME280;51094;53.864;27.676;2023-03-16T12:24:42;99439.16;;;13.16;34.61
64679;BME280;51094;53.864;27.676;2023-03-16T12:27:12;99434.88;;;12.71;35.92
64679;BME280;51094;53.864;27.676;2023-03-16T12:33:00;99439.84;;;13.07;34.27
64679;BME280;51094;53.864;27.676;2023-03-16T12:35:54;99441.50;;;12.63;35.40
64679;BME280;51094;53.864;27.676;2023-03-16T12:41:26;99447.00;;;13.27;35.46
64679;BME280;51094;53.864;27.676;2023-03-16T12:44:02;99447.09;;;13.80;34.48
64679;BME280;51094;53.864;27.676;2023-03-16T12:46:56;99445.81;;;14.07;32.90
64679;BME280;51094;53.864;27.676;2023-03-16T12:49:31;99417.28;;;13.83;33.48
64679;BME280;51094;53.864;27.676;2023-03-16T12:52:04;99438.50;;;13.89;34.20
64679;BME280;51094;53.864;27.676;2023-03-16T12:54:32;99447.38;;;13.66;34.24
64679;BME280;51094;53.864;27.676;2023-03-16T12:57:01;99366.50;;;13.64;34.52
64679;BME280;51094;53.864;27.676;2023-03-16T12:59:38;99285.88;;;13.60;34.06
64679;BME280;51094;53.864;27.676;2023-03-16T13:02:24;99456.78;;;14.84;33.38
64679;BME280;51094;53.864;27.676;2023-03-16T13:04:58;99347.28;;;14.07;31.12
64679;BME280;51094;53.864;27.676;2023-03-16T13:07:28;99449.78;;;14.94;32.35
64679;BME280;51094;53.864;27.676;2023-03-16T13:10:06;99449.34;;;14.89;31.75
64679;BME280;51094;53.864;27.676;2023-03-16T13:12:36;99460.78;;;14.57;32.27
64679;BME280;51094;53.864;27.676;2023-03-16T13:17:38;99366.72;;;13.41;32.13
64679;BME280;51094;53.864;27.676;2023-03-16T13:23:26;99457.91;;;12.99;32.31
64679;BME280;51094;53.864;27.676;2023-03-16T13:26:09;99368.47;;;12.41;32.48
64679;BME280;51094;53.864;27.676;2023-03-16T13:28:38;99422.88;;;13.35;33.27
64679;BME280;51094;53.864;27.676;2023-03-16T13:31:18;99486.59;;;13.10;32.27
64679;BME280;51094;53.864;27.676;2023-03-16T13:33:48;99450.94;;;12.31;31.70
64679;BME280;51094;53.864;27.676;2023-03-16T13:36:17;99297.78;;;10.82;33.68
64679;BME280;51094;53.864;27.676;2023-03-16T13:38:54;99446.94;;;11.55;33.87
64679;BME280;51094;53.864;27.676;2023-03-16T13:41:21;99334.84;;;11.57;32.56
64679;BME280;51094;53.864;27.676;2023-03-16T13:43:48;99470.69;;;12.22;32.75
64679;BME280;51094;53.864;27.676;2023-03-16T13:46:17;99467.59;;;12.17;33.31
64679;BME280;51094;53.864;27.676;2023-03-16T13:48:48;99457.84;;;13.98;31.68
64679;BME280;51094;53.864;27.676;2023-03-16T13:51:17;99442.00;;;14.52;30.70
64679;BME280;51094;53.864;27.676;2023-03-16T13:53:46;99456.00;;;15.33;28.97
64679;BME280;51094;53.864;27.676;2023-03-16T13:56:16;99459.72;;;15.80;29.56
64679;BME280;51094;53.864;27.676;2023-03-16T13:58:46;99336.84;;;15.08;28.74
64679;BME280;51094;53.864;27.676;2023-03-16T14:01:26;99467.75;;;14.36;28.06
64679;BME280;51094;53.864;27.676;2023-03-16T14:03:59;99441.88;;;13.80;30.39
64679;BME280;51094;53.864;27.676;2023-03-16T14:06:31;99473.19;;;14.86;29.61
64679;BME280;51094;53.864;27.676;2023-03-16T14:09:05;99447.94;;;15.55;28.58
64679;BME280;51094;53.864;27.676;2023-03-16T14:11:33;99469.81;;;15.94;28.97
64679;BME280;51094;53.864;27.676;2023-03-16T14:14:00;99454.75;;;15.96;28.65
64679;BME280;51094;53.864;27.676;2023-03-16T14:16:38;99454.50;;;15.40;28.07
64679;BME280;51094;53.864;27.676;2023-03-16T14:19:16;99479.41;;;14.64;28.89
64679;BME280;51094;53.864;27.676;2023-03-16T14:21:44;99351.31;;;13.15;29.62
64679;BME280;51094;53.864;27.676;2023-03-16T14:24:32;99465.47;;;13.13;30.11
64679;BME280;51094;53.864;27.676;2023-03-16T14:27:17;99502.34;;;12.53;30.43
64679;BME280;51094;53.864;27.676;2023-03-16T14:29:45;99500.50;;;12.07;31.36